sensor_id;sensor_type;location;lat;lon;timestamp;temperature;humidity
69031;DHT22;56083;48.774;8.942;2022-08-03T00:01:29;16.80;99.90
69031;DHT22;56083;48.774;8.942;2022-08-03T00:03:55;16.80;99.90
69031;DHT22;56083;48.774;8.942;2022-08-03T00:06:21;16.80;99.90
69031;DHT22;56083;48.774;8.942;2022-08-03T00:08:46;16.70;99.90
69031;DHT22;56083;48.774;8.942;2022-08-03T00:11:12;16.70;99.90
69031;DHT22;56083;48.774;8.942;2022-08-03T00:13:38;16.70;99.90
69031;DHT22;56083;48.774;8.942;2022-08-03T00:16:04;16.70;99.90
69031;DHT22;56083;48.774;8.942;2022-08-03T00:18:29;16.60;99.90
69031;DHT22;56083;48.774;8.942;2022-08-03T00:20:55;16.60;99.90
69031;DHT22;56083;48.774;8.942;2022-08-03T00:23:20;16.60;99.90
69031;DHT22;56083;48.774;8.942;2022-08-03T00:25:46;16.60;99.90
69031;DHT22;56083;48.774;8.942;2022-08-03T00:28:12;16.60;99.90
69031;DHT22;56083;48.774;8.942;2022-08-03T00:30:38;16.50;99.90
69031;DHT22;56083;48.774;8.942;2022-08-03T00:33:04;16.50;99.90
69031;DHT22;56083;48.774;8.942;2022-08-03T00:35:29;16.50;99.90
69031;DHT22;56083;48.774;8.942;2022-08-03T00:37:55;16.40;99.90
69031;DHT22;56083;48.774;8.942;2022-08-03T00:40:22;16.30;99.90
69031;DHT22;56083;48.774;8.942;2022-08-03T00:42:52;16.30;99.90
69031;DHT22;56083;48.774;8.942;2022-08-03T00:45:20;16.20;99.90
69031;DHT22;56083;48.774;8.942;2022-08-03T00:47:46;16.20;99.90
69031;DHT22;56083;48.774;8.942;2022-08-03T00:50:12;16.10;99.90
69031;DHT22;56083;48.774;8.942;2022-08-03T00:52:38;16.10;99.90
69031;DHT22;56083;48.774;8.942;2022-08-03T00:55:04;16.00;99.90
69031;DHT22;56083;48.774;8.942;2022-08-03T00:57:31;16.00;99.90
69031;DHT22;56083;48.774;8.942;2022-08-03T00:59:57;16.00;99.90
69031;DHT22;56083;48.774;8.942;2022-08-03T01:02:27;16.00;99.90
69031;DHT22;56083;48.774;8.942;2022-08-03T01:04:54;16.00;99.90
69031;DHT22;56083;48.774;8.942;2022-08-03T01:10:16;16.00;99.90
69031;DHT22;56083;48.774;8.942;2022-08-03T01:13:02;16.00;99.90
69031;DHT22;56083;48.774;8.942;2022-08-03T01:16:25;16.00;99.90
69031;DHT22;56083;48.774;8.942;2022-08-03T01:18:35;16.00;99.90
69031;DHT22;56083;48.774;8.942;2022-08-03T01:21:09;16.00;99.90
69031;DHT22;56083;48.774;8.942;2022-08-03T01:32:04;16.00;99.90
69031;DHT22;56083;48.774;8.942;2022-08-03T01:34:38;16.00;99.90
69031;DHT22;56083;48.774;8.942;2022-08-03T01:37:06;16.00;99.90
69031;DHT22;56083;48.774;8.942;2022-08-03T01:39:36;16.10;99.90
69031;DHT22;56083;48.774;8.942;2022-08-03T01:42:04;16.10;99.90
69031;DHT22;56083;48.774;8.942;2022-08-03T01:44:36;16.10;99.90
69031;DHT22;56083;48.774;8.942;2022-08-03T01:47:04;16.00;99.90
69031;DHT22;56083;48.774;8.942;2022-08-03T01:49:34;16.00;99.90
69031;DHT22;56083;48.774;8.942;2022-08-03T01:52:02;15.90;99.90
69031;DHT22;56083;48.774;8.942;2022-08-03T01:54:28;15.90;99.90
69031;DHT22;56083;48.774;8.942;2022-08-03T01:56:56;15.90;99.90
69031;DHT22;56083;48.774;8.942;2022-08-03T01:59:24;15.80;99.90
69031;DHT22;56083;48.774;8.942;2022-08-03T02:01:51;15.70;99.90
69031;DHT22;56083;48.774;8.942;2022-08-03T02:04:18;15.70;99.90
69031;DHT22;56083;48.774;8.942;2022-08-03T02:06:46;15.60;99.90
69031;DHT22;56083;48.774;8.942;2022-08-03T02:09:14;15.60;99.90
69031;DHT22;56083;48.774;8.942;2022-08-03T02:11:42;15.60;99.90
69031;DHT22;56083;48.774;8.942;2022-08-03T02:14:08;15.50;99.90
69031;DHT22;56083;48.774;8.942;2022-08-03T02:16:35;15.50;99.90
69031;DHT22;56083;48.774;8.942;2022-08-03T02:19:04;15.50;99.90
69031;DHT22;56083;48.774;8.942;2022-08-03T02:21:34;15.50;99.90
69031;DHT22;56083;48.774;8.942;2022-08-03T02:24:01;15.50;99.90
69031;DHT22;56083;48.774;8.942;2022-08-03T02:26:28;15.50;99.90
69031;DHT22;56083;48.774;8.942;2022-08-03T02:28:58;15.60;99.90
69031;DHT22;56083;48.774;8.942;2022-08-03T02:31:28;15.50;99.90
69031;DHT22;56083;48.774;8.942;2022-08-03T02:34:00;15.60;99.90
69031;DHT22;56083;48.774;8.942;2022-08-03T02:36:29;15.60;99.90
69031;DHT22;56083;48.774;8.942;2022-08-03T02:38:58;15.50;99.90
69031;DHT22;56083;48.774;8.942;2022-08-03T02:41:30;15.60;99.90
69031;DHT22;56083;48.774;8.942;2022-08-03T02:43:57;15.60;99.90
69031;DHT22;56083;48.774;8.942;2022-08-03T02:46:30;15.50;99.90
69031;DHT22;56083;48.774;8.942;2022-08-03T02:48:59;15.50;99.90
69031;DHT22;56083;48.774;8.942;2022-08-03T02:51:27;15.50;99.90
69031;DHT22;56083;48.774;8.942;2022-08-03T02:53:55;15.60;99.90
69031;DHT22;56083;48.774;8.942;2022-08-03T02:56:23;15.60;99.90
69031;DHT22;56083;48.774;8.942;2022-08-03T02:58:50;15.60;99.90
69031;DHT22;56083;48.774;8.942;2022-08-03T03:01:20;15.50;99.90
69031;DHT22;56083;48.774;8.942;2022-08-03T03:03:48;15.50;99.90
69031;DHT22;56083;48.774;8.942;2022-08-03T03:06:16;15.40;99.90
69031;DHT22;56083;48.774;8.942;2022-08-03T03:08:42;15.30;99.90
69031;DHT22;56083;48.774;8.942;2022-08-03T03:11:09;15.20;99.90
69031;DHT22;56083;48.774;8.942;2022-08-03T03:13:35;15.20;99.90
69031;DHT22;56083;48.774;8.942;2022-08-03T03:16:03;15.10;99.90
69031;DHT22;56083;48.774;8.942;2022-08-03T03:18:32;15.00;99.90
69031;DHT22;56083;48.774;8.942;2022-08-03T03:20:58;15.00;99.90
69031;DHT22;56083;48.774;8.942;2022-08-03T03:23:25;15.00;99.90
69031;DHT22;56083;48.774;8.942;2022-08-03T03:25:52;15.00;99.90
69031;DHT22;56083;48.774;8.942;2022-08-03T03:28:21;15.00;99.90
69031;DHT22;56083;48.774;8.942;2022-08-03T03:30:47;14.90;99.90
69031;DHT22;56083;48.774;8.942;2022-08-03T03:33:13;14.90;99.90
69031;DHT22;56083;48.774;8.942;2022-08-03T03:35:40;15.00;99.90
69031;DHT22;56083;48.774;8.942;2022-08-03T03:38:07;15.00;99.90
69031;DHT22;56083;48.774;8.942;2022-08-03T03:40:39;15.00;99.90
69031;DHT22;56083;48.774;8.942;2022-08-03T03:43:09;14.90;99.90
69031;DHT22;56083;48.774;8.942;2022-08-03T03:45:35;15.00;99.90
69031;DHT22;56083;48.774;8.942;2022-08-03T03:48:03;15.00;99.90
69031;DHT22;56083;48.774;8.942;2022-08-03T03:50:31;15.00;99.90
69031;DHT22;56083;48.774;8.942;2022-08-03T03:52:57;15.00;99.90
69031;DHT22;56083;48.774;8.942;2022-08-03T03:55:23;15.00;99.90
69031;DHT22;56083;48.774;8.942;2022-08-03T03:57:49;14.90;99.90
69031;DHT22;56083;48.774;8.942;2022-08-03T04:00:16;14.90;99.90
69031;DHT22;56083;48.774;8.942;2022-08-03T04:02:43;14.90;99.90
69031;DHT22;56083;48.774;8.942;2022-08-03T04:05:09;14.90;99.90
69031;DHT22;56083;48.774;8.942;2022-08-03T04:07:55;14.90;99.90
69031;DHT22;56083;48.774;8.942;2022-08-03T04:10:41;14.90;99.90
69031;DHT22;56083;48.774;8.942;2022-08-03T04:13:25;14.90;99.90
69031;DHT22;56083;48.774;8.942;2022-08-03T04:15:52;15.00;99.90
69031;DHT22;56083;48.774;8.942;2022-08-03T04:18:20;15.00;99.90
69031;DHT22;56083;48.774;8.942;2022-08-03T04:20:47;15.10;99.90
69031;DHT22;56083;48.774;8.942;2022-08-03T04:23:15;15.20;99.90
69031;DHT22;56083;48.774;8.942;2022-08-03T04:25:43;15.20;99.90
69031;DHT22;56083;48.774;8.942;2022-08-03T04:28:10;15.30;99.90
69031;DHT22;56083;48.774;8.942;2022-08-03T04:30:37;15.30;99.90
69031;DHT22;56083;48.774;8.942;2022-08-03T04:33:05;15.20;99.90
69031;DHT22;56083;48.774;8.942;2022-08-03T04:35:33;15.30;99.90
69031;DHT22;56083;48.774;8.942;2022-08-03T04:38:03;15.40;99.90
69031;DHT22;56083;48.774;8.942;2022-08-03T04:40:33;15.40;99.90
69031;DHT22;56083;48.774;8.942;2022-08-03T04:42:59;15.40;99.90
69031;DHT22;56083;48.774;8.942;2022-08-03T04:45:27;15.50;99.90
69031;DHT22;56083;48.774;8.942;2022-08-03T04:47:54;15.50;99.90
69031;DHT22;56083;48.774;8.942;2022-08-03T04:50:20;15.60;99.90
69031;DHT22;56083;48.774;8.942;2022-08-03T04:52:47;15.60;99.90
69031;DHT22;56083;48.774;8.942;2022-08-03T04:55:25;15.70;99.90
69031;DHT22;56083;48.774;8.942;2022-08-03T04:57:50;15.80;99.90
69031;DHT22;56083;48.774;8.942;2022-08-03T05:00:16;15.90;99.90
69031;DHT22;56083;48.774;8.942;2022-08-03T05:02:42;16.00;99.90
69031;DHT22;56083;48.774;8.942;2022-08-03T05:05:08;16.10;99.90
69031;DHT22;56083;48.774;8.942;2022-08-03T05:07:34;16.20;99.90
69031;DHT22;56083;48.774;8.942;2022-08-03T05:09:59;16.30;99.90
69031;DHT22;56083;48.774;8.942;2022-08-03T05:12:25;16.40;99.90
69031;DHT22;56083;48.774;8.942;2022-08-03T05:14:51;16.50;99.90
69031;DHT22;56083;48.774;8.942;2022-08-03T05:17:16;16.50;99.90
69031;DHT22;56083;48.774;8.942;2022-08-03T05:19:43;16.70;99.90
69031;DHT22;56083;48.774;8.942;2022-08-03T05:22:09;16.80;99.90
69031;DHT22;56083;48.774;8.942;2022-08-03T05:24:35;16.90;99.90
69031;DHT22;56083;48.774;8.942;2022-08-03T05:27:00;17.10;99.90
69031;DHT22;56083;48.774;8.942;2022-08-03T05:29:26;17.30;99.90
69031;DHT22;56083;48.774;8.942;2022-08-03T05:31:51;17.40;99.90
69031;DHT22;56083;48.774;8.942;2022-08-03T05:34:17;17.60;99.90
69031;DHT22;56083;48.774;8.942;2022-08-03T05:36:42;17.80;99.90
69031;DHT22;56083;48.774;8.942;2022-08-03T05:39:08;18.00;99.90
69031;DHT22;56083;48.774;8.942;2022-08-03T05:41:34;18.10;99.90
69031;DHT22;56083;48.774;8.942;2022-08-03T05:43:59;18.20;99.90
69031;DHT22;56083;48.774;8.942;2022-08-03T05:46:26;18.40;99.90
69031;DHT22;56083;48.774;8.942;2022-08-03T05:48:51;18.50;99.90
69031;DHT22;56083;48.774;8.942;2022-08-03T05:51:17;18.70;99.90
69031;DHT22;56083;48.774;8.942;2022-08-03T05:53:43;18.80;99.90
69031;DHT22;56083;48.774;8.942;2022-08-03T05:56:09;19.00;99.90
69031;DHT22;56083;48.774;8.942;2022-08-03T05:58:36;19.10;99.90
69031;DHT22;56083;48.774;8.942;2022-08-03T06:01:01;19.20;99.90
69031;DHT22;56083;48.774;8.942;2022-08-03T06:03:27;19.40;99.90
69031;DHT22;56083;48.774;8.942;2022-08-03T06:05:53;19.50;99.90
69031;DHT22;56083;48.774;8.942;2022-08-03T06:08:22;19.60;99.90
69031;DHT22;56083;48.774;8.942;2022-08-03T06:10:49;19.70;99.90
69031;DHT22;56083;48.774;8.942;2022-08-03T06:13:14;19.90;99.90
69031;DHT22;56083;48.774;8.942;2022-08-03T06:15:40;20.20;99.90
69031;DHT22;56083;48.774;8.942;2022-08-03T06:18:06;20.40;99.90
69031;DHT22;56083;48.774;8.942;2022-08-03T06:20:32;20.60;99.90
69031;DHT22;56083;48.774;8.942;2022-08-03T06:22:58;20.90;99.90
69031;DHT22;56083;48.774;8.942;2022-08-03T06:25:25;21.00;99.90
69031;DHT22;56083;48.774;8.942;2022-08-03T06:27:50;21.20;99.90
69031;DHT22;56083;48.774;8.942;2022-08-03T06:30:16;21.40;99.90
69031;DHT22;56083;48.774;8.942;2022-08-03T06:32:43;21.60;99.90
69031;DHT22;56083;48.774;8.942;2022-08-03T06:35:09;21.80;99.90
69031;DHT22;56083;48.774;8.942;2022-08-03T06:37:43;22.10;99.90
69031;DHT22;56083;48.774;8.942;2022-08-03T06:40:11;22.40;99.90
69031;DHT22;56083;48.774;8.942;2022-08-03T06:42:36;22.70;99.90
69031;DHT22;56083;48.774;8.942;2022-08-03T06:45:02;23.00;99.90
69031;DHT22;56083;48.774;8.942;2022-08-03T06:47:28;23.20;99.90
69031;DHT22;56083;48.774;8.942;2022-08-03T06:49:54;23.20;99.90
69031;DHT22;56083;48.774;8.942;2022-08-03T06:52:19;23.50;99.90
69031;DHT22;56083;48.774;8.942;2022-08-03T06:54:45;23.60;99.90
69031;DHT22;56083;48.774;8.942;2022-08-03T06:57:10;23.80;99.90
69031;DHT22;56083;48.774;8.942;2022-08-03T06:59:37;24.10;99.90
69031;DHT22;56083;48.774;8.942;2022-08-03T07:02:03;24.50;99.90
69031;DHT22;56083;48.774;8.942;2022-08-03T07:04:29;24.80;99.90
69031;DHT22;56083;48.774;8.942;2022-08-03T07:06:54;25.30;99.90
69031;DHT22;56083;48.774;8.942;2022-08-03T07:09:20;25.60;99.90
69031;DHT22;56083;48.774;8.942;2022-08-03T07:11:45;25.90;99.90
69031;DHT22;56083;48.774;8.942;2022-08-03T07:14:11;26.30;99.90
69031;DHT22;56083;48.774;8.942;2022-08-03T07:16:37;26.90;99.90
69031;DHT22;56083;48.774;8.942;2022-08-03T07:19:02;27.40;99.90
69031;DHT22;56083;48.774;8.942;2022-08-03T07:21:28;28.20;99.90
69031;DHT22;56083;48.774;8.942;2022-08-03T07:23:54;28.70;99.90
69031;DHT22;56083;48.774;8.942;2022-08-03T07:26:19;28.60;99.90
69031;DHT22;56083;48.774;8.942;2022-08-03T07:28:45;28.60;99.90
69031;DHT22;56083;48.774;8.942;2022-08-03T07:31:10;28.40;99.90
69031;DHT22;56083;48.774;8.942;2022-08-03T07:33:36;28.30;99.90
69031;DHT22;56083;48.774;8.942;2022-08-03T07:36:02;28.40;99.90
69031;DHT22;56083;48.774;8.942;2022-08-03T07:38:27;28.40;99.90
69031;DHT22;56083;48.774;8.942;2022-08-03T07:40:54;28.60;99.90
69031;DHT22;56083;48.774;8.942;2022-08-03T07:43:20;28.80;99.90
69031;DHT22;56083;48.774;8.942;2022-08-03T07:45:45;29.20;99.90
69031;DHT22;56083;48.774;8.942;2022-08-03T07:48:11;29.60;99.90
69031;DHT22;56083;48.774;8.942;2022-08-03T07:50:36;30.00;99.90
69031;DHT22;56083;48.774;8.942;2022-08-03T07:53:02;30.70;99.90
69031;DHT22;56083;48.774;8.942;2022-08-03T07:55:28;30.80;99.90
69031;DHT22;56083;48.774;8.942;2022-08-03T07:58:08;30.90;99.90
69031;DHT22;56083;48.774;8.942;2022-08-03T08:00:35;31.20;98.20
69031;DHT22;56083;48.774;8.942;2022-08-03T08:03:01;31.20;98.00
69031;DHT22;56083;48.774;8.942;2022-08-03T08:05:27;31.20;97.20
69031;DHT22;56083;48.774;8.942;2022-08-03T08:07:53;31.30;95.80
69031;DHT22;56083;48.774;8.942;2022-08-03T08:10:20;32.20;95.10
69031;DHT22;56083;48.774;8.942;2022-08-03T08:12:45;32.50;93.10
69031;DHT22;56083;48.774;8.942;2022-08-03T08:15:11;33.10;91.50
69031;DHT22;56083;48.774;8.942;2022-08-03T08:17:48;33.70;90.00
69031;DHT22;56083;48.774;8.942;2022-08-03T08:20:20;34.30;85.20
69031;DHT22;56083;48.774;8.942;2022-08-03T08:22:45;33.20;84.40
69031;DHT22;56083;48.774;8.942;2022-08-03T08:25:11;32.80;85.40
69031;DHT22;56083;48.774;8.942;2022-08-03T08:27:55;33.10;86.00
69031;DHT22;56083;48.774;8.942;2022-08-03T08:30:21;33.80;83.20
69031;DHT22;56083;48.774;8.942;2022-08-03T08:32:48;33.80;80.70
69031;DHT22;56083;48.774;8.942;2022-08-03T08:35:15;34.00;80.80
69031;DHT22;56083;48.774;8.942;2022-08-03T08:37:41;34.30;76.90
69031;DHT22;56083;48.774;8.942;2022-08-03T08:40:08;34.80;75.00
69031;DHT22;56083;48.774;8.942;2022-08-03T08:42:36;34.90;73.30
69031;DHT22;56083;48.774;8.942;2022-08-03T08:45:03;35.40;70.90
69031;DHT22;56083;48.774;8.942;2022-08-03T08:47:31;36.10;67.10
69031;DHT22;56083;48.774;8.942;2022-08-03T08:49:59;36.40;63.20
69031;DHT22;56083;48.774;8.942;2022-08-03T08:52:28;36.90;65.40
69031;DHT22;56083;48.774;8.942;2022-08-03T08:54:59;37.30;60.20
69031;DHT22;56083;48.774;8.942;2022-08-03T08:57:33;37.40;59.40
69031;DHT22;56083;48.774;8.942;2022-08-03T09:00:00;36.60;57.60
69031;DHT22;56083;48.774;8.942;2022-08-03T09:02:29;36.90;58.60
69031;DHT22;56083;48.774;8.942;2022-08-03T09:04:56;37.10;55.70
69031;DHT22;56083;48.774;8.942;2022-08-03T09:07:22;37.10;52.90
69031;DHT22;56083;48.774;8.942;2022-08-03T09:09:48;36.90;56.40
69031;DHT22;56083;48.774;8.942;2022-08-03T09:12:14;38.00;55.50
69031;DHT22;56083;48.774;8.942;2022-08-03T09:14:39;38.40;53.20
69031;DHT22;56083;48.774;8.942;2022-08-03T09:17:06;38.00;51.80
69031;DHT22;56083;48.774;8.942;2022-08-03T09:19:34;37.40;52.40
69031;DHT22;56083;48.774;8.942;2022-08-03T09:22:20;37.40;53.10
69031;DHT22;56083;48.774;8.942;2022-08-03T09:24:56;37.60;52.90
69031;DHT22;56083;48.774;8.942;2022-08-03T09:27:23;37.30;53.00
69031;DHT22;56083;48.774;8.942;2022-08-03T09:29:50;37.90;53.00
69031;DHT22;56083;48.774;8.942;2022-08-03T09:32:21;38.60;52.20
69031;DHT22;56083;48.774;8.942;2022-08-03T09:34:48;39.10;50.50
69031;DHT22;56083;48.774;8.942;2022-08-03T09:37:15;39.50;49.00
69031;DHT22;56083;48.774;8.942;2022-08-03T09:39:41;39.50;48.00
69031;DHT22;56083;48.774;8.942;2022-08-03T09:42:18;38.00;48.70
69031;DHT22;56083;48.774;8.942;2022-08-03T09:44:45;38.50;49.00
69031;DHT22;56083;48.774;8.942;2022-08-03T09:47:13;39.00;49.70
69031;DHT22;56083;48.774;8.942;2022-08-03T09:49:40;39.40;46.90
69031;DHT22;56083;48.774;8.942;2022-08-03T09:52:15;39.10;47.70
69031;DHT22;56083;48.774;8.942;2022-08-03T09:54:42;39.50;47.40
69031;DHT22;56083;48.774;8.942;2022-08-03T09:57:22;38.40;47.60
69031;DHT22;56083;48.774;8.942;2022-08-03T09:59:49;39.60;47.40
69031;DHT22;56083;48.774;8.942;2022-08-03T10:02:26;39.90;47.20
69031;DHT22;56083;48.774;8.942;2022-08-03T10:04:52;41.30;45.10
69031;DHT22;56083;48.774;8.942;2022-08-03T10:07:23;41.70;44.30
69031;DHT22;56083;48.774;8.942;2022-08-03T10:09:54;41.80;44.00
69031;DHT22;56083;48.774;8.942;2022-08-03T10:12:20;41.10;43.60
69031;DHT22;56083;48.774;8.942;2022-08-03T10:14:46;41.40;43.40
69031;DHT22;56083;48.774;8.942;2022-08-03T10:17:12;41.90;43.30
69031;DHT22;56083;48.774;8.942;2022-08-03T10:19:38;41.70;42.70
69031;DHT22;56083;48.774;8.942;2022-08-03T10:22:14;40.70;43.10
69031;DHT22;56083;48.774;8.942;2022-08-03T10:24:48;40.60;43.50
69031;DHT22;56083;48.774;8.942;2022-08-03T10:27:16;40.90;43.40
69031;DHT22;56083;48.774;8.942;2022-08-03T10:29:46;40.80;43.60
69031;DHT22;56083;48.774;8.942;2022-08-03T10:35:20;41.30;43.00
69031;DHT22;56083;48.774;8.942;2022-08-03T10:37:57;41.20;41.90
69031;DHT22;56083;48.774;8.942;2022-08-03T10:40:23;41.80;42.60
69031;DHT22;56083;48.774;8.942;2022-08-03T10:42:53;42.50;41.20
69031;DHT22;56083;48.774;8.942;2022-08-03T10:45:23;42.70;42.20
69031;DHT22;56083;48.774;8.942;2022-08-03T10:47:51;42.90;40.60
69031;DHT22;56083;48.774;8.942;2022-08-03T10:50:17;42.70;40.70
69031;DHT22;56083;48.774;8.942;2022-08-03T10:52:54;42.40;41.20
69031;DHT22;56083;48.774;8.942;2022-08-03T10:55:49;42.10;40.90
69031;DHT22;56083;48.774;8.942;2022-08-03T11:01:09;41.40;42.10
69031;DHT22;56083;48.774;8.942;2022-08-03T11:06:21;43.00;41.30
69031;DHT22;56083;48.774;8.942;2022-08-03T11:08:50;43.50;40.10
69031;DHT22;56083;48.774;8.942;2022-08-03T11:11:36;43.90;39.30
69031;DHT22;56083;48.774;8.942;2022-08-03T11:14:03;42.40;39.30
69031;DHT22;56083;48.774;8.942;2022-08-03T11:16:36;42.90;39.50
69031;DHT22;56083;48.774;8.942;2022-08-03T11:19:06;43.10;39.00
69031;DHT22;56083;48.774;8.942;2022-08-03T11:27:23;43.10;38.30
69031;DHT22;56083;48.774;8.942;2022-08-03T11:35:24;43.00;39.30
69031;DHT22;56083;48.774;8.942;2022-08-03T11:40:38;44.20;37.90
69031;DHT22;56083;48.774;8.942;2022-08-03T11:43:07;44.50;37.40
69031;DHT22;56083;48.774;8.942;2022-08-03T11:45:33;42.80;38.40
69031;DHT22;56083;48.774;8.942;2022-08-03T11:48:10;42.80;37.80
69031;DHT22;56083;48.774;8.942;2022-08-03T11:50:37;43.60;37.50
69031;DHT22;56083;48.774;8.942;2022-08-03T11:53:03;44.60;36.90
69031;DHT22;56083;48.774;8.942;2022-08-03T11:55:30;45.50;36.20
69031;DHT22;56083;48.774;8.942;2022-08-03T11:57:58;45.10;35.70
69031;DHT22;56083;48.774;8.942;2022-08-03T12:00:28;44.20;35.80
69031;DHT22;56083;48.774;8.942;2022-08-03T12:02:59;43.50;37.80
69031;DHT22;56083;48.774;8.942;2022-08-03T12:05:33;43.70;37.00
69031;DHT22;56083;48.774;8.942;2022-08-03T12:07:59;43.50;37.20
69031;DHT22;56083;48.774;8.942;2022-08-03T12:10:25;43.00;37.70
69031;DHT22;56083;48.774;8.942;2022-08-03T12:12:58;43.50;37.40
69031;DHT22;56083;48.774;8.942;2022-08-03T12:15:30;44.80;36.20
69031;DHT22;56083;48.774;8.942;2022-08-03T12:17:58;45.80;35.00
69031;DHT22;56083;48.774;8.942;2022-08-03T12:20:27;46.70;34.70
69031;DHT22;56083;48.774;8.942;2022-08-03T12:22:53;46.00;33.90
69031;DHT22;56083;48.774;8.942;2022-08-03T12:25:21;45.80;34.10
69031;DHT22;56083;48.774;8.942;2022-08-03T12:27:47;46.00;34.60
69031;DHT22;56083;48.774;8.942;2022-08-03T12:30:13;45.70;34.00
69031;DHT22;56083;48.774;8.942;2022-08-03T12:32:42;45.80;34.20
69031;DHT22;56083;48.774;8.942;2022-08-03T12:35:08;45.80;34.30
69031;DHT22;56083;48.774;8.942;2022-08-03T12:37:34;45.50;34.10
69031;DHT22;56083;48.774;8.942;2022-08-03T12:40:01;45.80;33.90
69031;DHT22;56083;48.774;8.942;2022-08-03T12:42:30;45.80;34.40
69031;DHT22;56083;48.774;8.942;2022-08-03T12:44:56;45.80;34.40
69031;DHT22;56083;48.774;8.942;2022-08-03T12:47:22;46.00;33.90
69031;DHT22;56083;48.774;8.942;2022-08-03T12:49:52;46.00;34.40
69031;DHT22;56083;48.774;8.942;2022-08-03T12:52:20;46.00;33.80
69031;DHT22;56083;48.774;8.942;2022-08-03T12:54:59;46.70;33.10
69031;DHT22;56083;48.774;8.942;2022-08-03T12:57:38;46.60;32.50
69031;DHT22;56083;48.774;8.942;2022-08-03T13:00:15;47.40;32.30
69031;DHT22;56083;48.774;8.942;2022-08-03T13:02:41;47.60;31.70
69031;DHT22;56083;48.774;8.942;2022-08-03T13:05:13;46.50;31.20
69031;DHT22;56083;48.774;8.942;2022-08-03T13:07:43;46.50;32.00
69031;DHT22;56083;48.774;8.942;2022-08-03T13:10:10;45.90;32.50
69031;DHT22;56083;48.774;8.942;2022-08-03T13:12:49;45.20;32.70
69031;DHT22;56083;48.774;8.942;2022-08-03T13:15:15;42.90;33.80
69031;DHT22;56083;48.774;8.942;2022-08-03T13:17:41;43.20;34.20
69031;DHT22;56083;48.774;8.942;2022-08-03T13:20:07;43.70;33.50
69031;DHT22;56083;48.774;8.942;2022-08-03T13:22:33;44.70;33.50
69031;DHT22;56083;48.774;8.942;2022-08-03T13:24:59;45.80;33.00
69031;DHT22;56083;48.774;8.942;2022-08-03T13:27:27;46.70;32.30
69031;DHT22;56083;48.774;8.942;2022-08-03T13:29:54;46.40;31.80
69031;DHT22;56083;48.774;8.942;2022-08-03T13:32:20;47.30;32.10
69031;DHT22;56083;48.774;8.942;2022-08-03T13:34:46;47.60;30.90
69031;DHT22;56083;48.774;8.942;2022-08-03T13:37:12;47.80;30.10
69031;DHT22;56083;48.774;8.942;2022-08-03T13:39:39;47.70;30.40
69031;DHT22;56083;48.774;8.942;2022-08-03T13:42:05;47.50;30.60
69031;DHT22;56083;48.774;8.942;2022-08-03T13:44:32;47.90;30.80
69031;DHT22;56083;48.774;8.942;2022-08-03T13:46:57;46.50;31.20
69031;DHT22;56083;48.774;8.942;2022-08-03T13:49:25;46.40;31.20
69031;DHT22;56083;48.774;8.942;2022-08-03T13:51:51;46.00;31.50
69031;DHT22;56083;48.774;8.942;2022-08-03T13:54:17;45.90;31.80
69031;DHT22;56083;48.774;8.942;2022-08-03T13:56:43;45.60;32.30
69031;DHT22;56083;48.774;8.942;2022-08-03T13:59:14;45.70;32.60
69031;DHT22;56083;48.774;8.942;2022-08-03T14:01:40;46.20;31.30
69031;DHT22;56083;48.774;8.942;2022-08-03T14:04:06;43.70;32.20
69031;DHT22;56083;48.774;8.942;2022-08-03T14:06:31;41.70;34.30
69031;DHT22;56083;48.774;8.942;2022-08-03T14:08:57;42.40;34.80
69031;DHT22;56083;48.774;8.942;2022-08-03T14:11:23;42.30;34.90
69031;DHT22;56083;48.774;8.942;2022-08-03T14:13:48;43.30;34.10
69031;DHT22;56083;48.774;8.942;2022-08-03T14:16:14;42.80;34.90
69031;DHT22;56083;48.774;8.942;2022-08-03T14:18:40;43.40;34.70
69031;DHT22;56083;48.774;8.942;2022-08-03T14:21:06;43.70;33.90
69031;DHT22;56083;48.774;8.942;2022-08-03T14:23:33;43.20;34.30
69031;DHT22;56083;48.774;8.942;2022-08-03T14:25:59;43.70;33.90
69031;DHT22;56083;48.774;8.942;2022-08-03T14:28:25;43.30;33.50
69031;DHT22;56083;48.774;8.942;2022-08-03T14:30:52;44.00;33.80
69031;DHT22;56083;48.774;8.942;2022-08-03T14:33:19;44.80;33.10
69031;DHT22;56083;48.774;8.942;2022-08-03T14:35:45;44.80;32.40
69031;DHT22;56083;48.774;8.942;2022-08-03T14:38:10;45.30;32.00
69031;DHT22;56083;48.774;8.942;2022-08-03T14:40:36;46.00;31.50
69031;DHT22;56083;48.774;8.942;2022-08-03T14:43:02;46.00;31.30
69031;DHT22;56083;48.774;8.942;2022-08-03T14:45:28;45.50;31.80
69031;DHT22;56083;48.774;8.942;2022-08-03T14:47:53;45.80;31.20
69031;DHT22;56083;48.774;8.942;2022-08-03T14:50:19;45.00;31.90
69031;DHT22;56083;48.774;8.942;2022-08-03T14:52:46;44.40;32.40
69031;DHT22;56083;48.774;8.942;2022-08-03T14:55:12;44.10;32.70
69031;DHT22;56083;48.774;8.942;2022-08-03T14:57:37;43.80;33.10
69031;DHT22;56083;48.774;8.942;2022-08-03T15:00:04;43.60;32.80
69031;DHT22;56083;48.774;8.942;2022-08-03T15:02:29;43.80;32.90
69031;DHT22;56083;48.774;8.942;2022-08-03T15:04:55;43.60;33.50
69031;DHT22;56083;48.774;8.942;2022-08-03T15:07:21;44.20;33.00
69031;DHT22;56083;48.774;8.942;2022-08-03T15:09:46;44.40;32.50
69031;DHT22;56083;48.774;8.942;2022-08-03T15:12:12;44.80;32.20
69031;DHT22;56083;48.774;8.942;2022-08-03T15:14:38;44.70;32.20
69031;DHT22;56083;48.774;8.942;2022-08-03T15:17:04;44.70;32.20
69031;DHT22;56083;48.774;8.942;2022-08-03T15:19:29;45.00;31.90
69031;DHT22;56083;48.774;8.942;2022-08-03T15:21:55;44.80;32.50
69031;DHT22;56083;48.774;8.942;2022-08-03T15:24:21;44.80;32.30
69031;DHT22;56083;48.774;8.942;2022-08-03T15:26:46;44.60;33.00
69031;DHT22;56083;48.774;8.942;2022-08-03T15:29:12;43.80;32.90
69031;DHT22;56083;48.774;8.942;2022-08-03T15:31:38;43.80;33.10
69031;DHT22;56083;48.774;8.942;2022-08-03T15:34:04;43.90;33.10
69031;DHT22;56083;48.774;8.942;2022-08-03T15:36:31;44.10;33.00
69031;DHT22;56083;48.774;8.942;2022-08-03T15:38:56;44.40;32.50
69031;DHT22;56083;48.774;8.942;2022-08-03T15:41:22;43.90;32.50
69031;DHT22;56083;48.774;8.942;2022-08-03T15:43:48;44.10;33.20
69031;DHT22;56083;48.774;8.942;2022-08-03T15:46:14;44.00;34.40
69031;DHT22;56083;48.774;8.942;2022-08-03T15:48:40;43.90;34.40
69031;DHT22;56083;48.774;8.942;2022-08-03T15:51:07;43.20;34.70
69031;DHT22;56083;48.774;8.942;2022-08-03T15:53:33;41.50;35.40
69031;DHT22;56083;48.774;8.942;2022-08-03T15:55:59;40.40;36.00
69031;DHT22;56083;48.774;8.942;2022-08-03T15:58:25;40.30;37.10
69031;DHT22;56083;48.774;8.942;2022-08-03T16:00:58;40.60;36.80
69031;DHT22;56083;48.774;8.942;2022-08-03T16:03:24;40.50;36.40
69031;DHT22;56083;48.774;8.942;2022-08-03T16:05:52;39.70;37.30
69031;DHT22;56083;48.774;8.942;2022-08-03T16:08:18;39.70;37.60